Terminal Aerodrome Forecast
Issued by NWS Sioux Falls, SD

Home | Current Version | Previous Version | Text Only | Print | Product List | Glossary On
Versions: 1 2 3 4 5 6 7 8 9 10 11 12 13 14 15
000
FTUS43 KFSD 272200 AAA
TAFFSD
TAF AMD
KFSD 272243Z 2723/2818 15008KT P6SM BKN025 BKN060
     FM280700 13006KT 5SM -TSRA BKN010CB
     FM281500 13008KT 6SM -RA BR BKN007=

USA.gov is the U.S. government's official web portal to all federal, state and local government web resources and services.